sensor_id;sensor_type;location;lat;lon;timestamp;P1;durP1;ratioP1;P2;durP2;ratioP2
22549;SDS011;11441;57.164;-2.120;2023-05-19T00:01:42;0.52;;;0.30;;
22549;SDS011;11441;57.164;-2.120;2023-05-19T00:04:09;0.40;;;0.40;;
22549;SDS011;11441;57.164;-2.120;2023-05-19T00:06:37;1.50;;;0.32;;
22549;SDS011;11441;57.164;-2.120;2023-05-19T00:09:07;1.65;;;0.40;;
22549;SDS011;11441;57.164;-2.120;2023-05-19T00:11:36;3.03;;;0.70;;
22549;SDS011;11441;57.164;-2.120;2023-05-19T00:14:22;0.90;;;0.57;;
22549;SDS011;11441;57.164;-2.120;2023-05-19T00:16:49;1.95;;;0.52;;
22549;SDS011;11441;57.164;-2.120;2023-05-19T00:19:16;1.60;;;0.68;;
22549;SDS011;11441;57.164;-2.120;2023-05-19T00:21:44;2.45;;;0.73;;
22549;SDS011;11441;57.164;-2.120;2023-05-19T00:24:11;0.95;;;0.40;;
22549;SDS011;11441;57.164;-2.120;2023-05-19T00:26:38;1.63;;;0.55;;
22549;SDS011;11441;57.164;-2.120;2023-05-19T00:29:05;2.00;;;0.80;;
22549;SDS011;11441;57.164;-2.120;2023-05-19T00:31:50;1.23;;;0.43;;
22549;SDS011;11441;57.164;-2.120;2023-05-19T00:34:17;2.13;;;0.50;;
22549;SDS011;11441;57.164;-2.120;2023-05-19T00:36:44;3.83;;;0.95;;
22549;SDS011;11441;57.164;-2.120;2023-05-19T00:39:12;2.63;;;0.77;;
22549;SDS011;11441;57.164;-2.120;2023-05-19T00:41:40;5.38;;;0.80;;
22549;SDS011;11441;57.164;-2.120;2023-05-19T00:44:06;4.53;;;1.00;;
22549;SDS011;11441;57.164;-2.120;2023-05-19T00:46:33;1.30;;;1.05;;
22549;SDS011;11441;57.164;-2.120;2023-05-19T00:49:01;3.22;;;0.90;;
22549;SDS011;11441;57.164;-2.120;2023-05-19T00:51:27;2.10;;;1.00;;
22549;SDS011;11441;57.164;-2.120;2023-05-19T00:53:55;4.68;;;1.25;;
22549;SDS011;11441;57.164;-2.120;2023-05-19T00:56:23;2.42;;;1.05;;
22549;SDS011;11441;57.164;-2.120;2023-05-19T00:58:51;5.78;;;1.00;;
22549;SDS011;11441;57.164;-2.120;2023-05-19T01:01:21;3.40;;;1.23;;
22549;SDS011;11441;57.164;-2.120;2023-05-19T01:03:48;3.80;;;1.48;;
22549;SDS011;11441;57.164;-2.120;2023-05-19T01:06:15;4.32;;;1.13;;
22549;SDS011;11441;57.164;-2.120;2023-05-19T01:08:45;6.57;;;1.25;;
22549;SDS011;11441;57.164;-2.120;2023-05-19T01:11:12;4.95;;;1.30;;
22549;SDS011;11441;57.164;-2.120;2023-05-19T01:13:38;3.92;;;1.23;;
22549;SDS011;11441;57.164;-2.120;2023-05-19T01:18:53;2.72;;;1.20;;
22549;SDS011;11441;57.164;-2.120;2023-05-19T01:32:48;11.18;;;2.45;;
22549;SDS011;11441;57.164;-2.120;2023-05-19T01:35:20;7.18;;;1.88;;
22549;SDS011;11441;57.164;-2.120;2023-05-19T01:37:51;8.07;;;1.73;;
22549;SDS011;11441;57.164;-2.120;2023-05-19T01:40:21;10.38;;;1.70;;
22549;SDS011;11441;57.164;-2.120;2023-05-19T01:42:51;8.35;;;2.00;;
22549;SDS011;11441;57.164;-2.120;2023-05-19T01:45:24;5.97;;;2.15;;
22549;SDS011;11441;57.164;-2.120;2023-05-19T01:47:55;9.63;;;2.35;;
22549;SDS011;11441;57.164;-2.120;2023-05-19T01:50:24;11.95;;;2.45;;
22549;SDS011;11441;57.164;-2.120;2023-05-19T01:52:51;8.73;;;2.75;;
22549;SDS011;11441;57.164;-2.120;2023-05-19T01:55:18;7.95;;;2.33;;
22549;SDS011;11441;57.164;-2.120;2023-05-19T02:03:10;10.82;;;2.60;;
22549;SDS011;11441;57.164;-2.120;2023-05-19T02:08:29;10.00;;;2.42;;
22549;SDS011;11441;57.164;-2.120;2023-05-19T02:14:19;5.97;;;2.00;;
22549;SDS011;11441;57.164;-2.120;2023-05-19T02:16:50;9.73;;;1.92;;
22549;SDS011;11441;57.164;-2.120;2023-05-19T02:19:28;6.18;;;1.98;;
22549;SDS011;11441;57.164;-2.120;2023-05-19T02:21:58;10.82;;;3.10;;
22549;SDS011;11441;57.164;-2.120;2023-05-19T02:24:25;4.38;;;1.52;;
22549;SDS011;11441;57.164;-2.120;2023-05-19T02:26:52;6.90;;;2.10;;
22549;SDS011;11441;57.164;-2.120;2023-05-19T02:29:19;11.23;;;2.70;;
22549;SDS011;11441;57.164;-2.120;2023-05-19T02:31:48;9.73;;;2.83;;
22549;SDS011;11441;57.164;-2.120;2023-05-19T02:34:17;7.63;;;2.10;;
22549;SDS011;11441;57.164;-2.120;2023-05-19T02:36:44;9.15;;;2.60;;
22549;SDS011;11441;57.164;-2.120;2023-05-19T02:39:11;12.10;;;3.00;;
22549;SDS011;11441;57.164;-2.120;2023-05-19T02:41:38;9.00;;;2.20;;
22549;SDS011;11441;57.164;-2.120;2023-05-19T02:44:05;9.55;;;2.47;;
22549;SDS011;11441;57.164;-2.120;2023-05-19T02:46:33;7.22;;;2.88;;
22549;SDS011;11441;57.164;-2.120;2023-05-19T02:49:00;11.40;;;2.80;;
22549;SDS011;11441;57.164;-2.120;2023-05-19T02:51:27;13.15;;;2.83;;
22549;SDS011;11441;57.164;-2.120;2023-05-19T02:53:53;8.88;;;2.92;;
22549;SDS011;11441;57.164;-2.120;2023-05-19T02:56:20;6.13;;;2.42;;
22549;SDS011;11441;57.164;-2.120;2023-05-19T02:58:47;6.97;;;2.38;;
22549;SDS011;11441;57.164;-2.120;2023-05-19T03:01:14;9.57;;;2.33;;
22549;SDS011;11441;57.164;-2.120;2023-05-19T03:03:42;7.50;;;2.38;;
22549;SDS011;11441;57.164;-2.120;2023-05-19T03:06:09;7.53;;;3.15;;
22549;SDS011;11441;57.164;-2.120;2023-05-19T03:08:36;6.68;;;2.22;;
22549;SDS011;11441;57.164;-2.120;2023-05-19T03:11:22;8.98;;;2.50;;
22549;SDS011;11441;57.164;-2.120;2023-05-19T03:13:49;9.73;;;3.30;;
22549;SDS011;11441;57.164;-2.120;2023-05-19T03:19:01;11.35;;;3.15;;
22549;SDS011;11441;57.164;-2.120;2023-05-19T03:21:28;12.10;;;4.03;;
22549;SDS011;11441;57.164;-2.120;2023-05-19T03:23:57;11.60;;;3.03;;
22549;SDS011;11441;57.164;-2.120;2023-05-19T03:26:24;12.10;;;3.45;;
22549;SDS011;11441;57.164;-2.120;2023-05-19T03:28:51;10.43;;;3.67;;
22549;SDS011;11441;57.164;-2.120;2023-05-19T03:31:18;15.60;;;3.70;;
22549;SDS011;11441;57.164;-2.120;2023-05-19T03:34:03;13.32;;;3.55;;
22549;SDS011;11441;57.164;-2.120;2023-05-19T03:36:30;18.15;;;3.22;;
22549;SDS011;11441;57.164;-2.120;2023-05-19T03:38:59;10.07;;;2.97;;
22549;SDS011;11441;57.164;-2.120;2023-05-19T03:44:12;11.57;;;3.50;;
22549;SDS011;11441;57.164;-2.120;2023-05-19T03:46:39;12.35;;;3.38;;
22549;SDS011;11441;57.164;-2.120;2023-05-19T03:49:48;15.75;;;3.08;;
22549;SDS011;11441;57.164;-2.120;2023-05-19T03:52:33;10.38;;;3.30;;
22549;SDS011;11441;57.164;-2.120;2023-05-19T03:55:20;14.98;;;3.08;;
22549;SDS011;11441;57.164;-2.120;2023-05-19T03:57:47;13.43;;;3.58;;
22549;SDS011;11441;57.164;-2.120;2023-05-19T04:00:14;12.40;;;3.60;;
22549;SDS011;11441;57.164;-2.120;2023-05-19T04:02:42;7.82;;;2.75;;
22549;SDS011;11441;57.164;-2.120;2023-05-19T04:05:09;14.82;;;3.60;;
22549;SDS011;11441;57.164;-2.120;2023-05-19T04:07:36;14.30;;;3.80;;
22549;SDS011;11441;57.164;-2.120;2023-05-19T04:10:03;10.93;;;3.03;;
22549;SDS011;11441;57.164;-2.120;2023-05-19T04:12:30;13.65;;;3.45;;
22549;SDS011;11441;57.164;-2.120;2023-05-19T04:14:58;13.20;;;3.53;;
22549;SDS011;11441;57.164;-2.120;2023-05-19T04:17:25;11.98;;;3.90;;
22549;SDS011;11441;57.164;-2.120;2023-05-19T04:19:53;18.63;;;4.13;;
22549;SDS011;11441;57.164;-2.120;2023-05-19T04:22:21;14.50;;;3.28;;
22549;SDS011;11441;57.164;-2.120;2023-05-19T04:24:48;11.60;;;3.50;;
22549;SDS011;11441;57.164;-2.120;2023-05-19T04:27:16;13.02;;;3.97;;
22549;SDS011;11441;57.164;-2.120;2023-05-19T04:29:43;13.30;;;4.60;;
22549;SDS011;11441;57.164;-2.120;2023-05-19T04:32:11;11.63;;;3.92;;
22549;SDS011;11441;57.164;-2.120;2023-05-19T04:34:43;15.55;;;3.50;;
22549;SDS011;11441;57.164;-2.120;2023-05-19T04:37:19;9.35;;;3.45;;
22549;SDS011;11441;57.164;-2.120;2023-05-19T04:39:46;18.85;;;4.38;;
22549;SDS011;11441;57.164;-2.120;2023-05-19T04:42:14;15.48;;;3.85;;
22549;SDS011;11441;57.164;-2.120;2023-05-19T04:44:45;12.43;;;3.97;;
22549;SDS011;11441;57.164;-2.120;2023-05-19T04:47:15;13.63;;;3.55;;
22549;SDS011;11441;57.164;-2.120;2023-05-19T04:49:42;18.38;;;3.85;;
22549;SDS011;11441;57.164;-2.120;2023-05-19T04:52:09;8.15;;;3.05;;
22549;SDS011;11441;57.164;-2.120;2023-05-19T04:54:38;17.55;;;4.10;;
22549;SDS011;11441;57.164;-2.120;2023-05-19T04:57:05;11.63;;;3.65;;
22549;SDS011;11441;57.164;-2.120;2023-05-19T04:59:36;16.88;;;4.28;;
22549;SDS011;11441;57.164;-2.120;2023-05-19T05:02:05;11.55;;;4.00;;
22549;SDS011;11441;57.164;-2.120;2023-05-19T05:04:35;12.55;;;3.72;;
22549;SDS011;11441;57.164;-2.120;2023-05-19T05:07:01;11.65;;;3.15;;
22549;SDS011;11441;57.164;-2.120;2023-05-19T05:09:28;11.48;;;3.58;;
22549;SDS011;11441;57.164;-2.120;2023-05-19T05:11:57;9.82;;;2.90;;
22549;SDS011;11441;57.164;-2.120;2023-05-19T05:14:25;14.75;;;3.60;;
22549;SDS011;11441;57.164;-2.120;2023-05-19T05:16:52;10.85;;;3.63;;
22549;SDS011;11441;57.164;-2.120;2023-05-19T05:19:22;8.63;;;3.47;;
22549;SDS011;11441;57.164;-2.120;2023-05-19T05:21:50;14.10;;;3.83;;
22549;SDS011;11441;57.164;-2.120;2023-05-19T05:24:18;7.60;;;2.83;;
22549;SDS011;11441;57.164;-2.120;2023-05-19T05:26:50;13.82;;;3.33;;
22549;SDS011;11441;57.164;-2.120;2023-05-19T05:29:17;9.60;;;2.42;;
22549;SDS011;11441;57.164;-2.120;2023-05-19T05:31:44;13.20;;;3.42;;
22549;SDS011;11441;57.164;-2.120;2023-05-19T05:34:11;10.57;;;2.63;;
22549;SDS011;11441;57.164;-2.120;2023-05-19T05:36:38;12.88;;;3.30;;
22549;SDS011;11441;57.164;-2.120;2023-05-19T05:39:06;12.60;;;3.50;;
22549;SDS011;11441;57.164;-2.120;2023-05-19T05:41:35;7.60;;;2.85;;
22549;SDS011;11441;57.164;-2.120;2023-05-19T05:44:09;13.70;;;3.63;;
22549;SDS011;11441;57.164;-2.120;2023-05-19T05:46:54;9.75;;;2.40;;
22549;SDS011;11441;57.164;-2.120;2023-05-19T05:49:22;9.13;;;2.83;;
22549;SDS011;11441;57.164;-2.120;2023-05-19T05:51:49;13.57;;;3.28;;
22549;SDS011;11441;57.164;-2.120;2023-05-19T05:54:49;12.25;;;2.78;;
22549;SDS011;11441;57.164;-2.120;2023-05-19T05:57:18;11.27;;;3.25;;
22549;SDS011;11441;57.164;-2.120;2023-05-19T05:59:45;11.80;;;3.22;;
22549;SDS011;11441;57.164;-2.120;2023-05-19T06:02:13;15.70;;;3.78;;
22549;SDS011;11441;57.164;-2.120;2023-05-19T06:04:40;9.30;;;3.10;;
22549;SDS011;11441;57.164;-2.120;2023-05-19T06:07:07;8.10;;;2.70;;
22549;SDS011;11441;57.164;-2.120;2023-05-19T06:09:36;9.38;;;3.58;;
22549;SDS011;11441;57.164;-2.120;2023-05-19T06:12:05;9.18;;;3.70;;
22549;SDS011;11441;57.164;-2.120;2023-05-19T06:14:39;10.15;;;3.42;;
22549;SDS011;11441;57.164;-2.120;2023-05-19T06:17:32;10.75;;;3.40;;
22549;SDS011;11441;57.164;-2.120;2023-05-19T06:20:01;14.75;;;3.65;;
22549;SDS011;11441;57.164;-2.120;2023-05-19T06:22:30;9.50;;;3.05;;
22549;SDS011;11441;57.164;-2.120;2023-05-19T06:24:57;12.10;;;2.88;;
22549;SDS011;11441;57.164;-2.120;2023-05-19T06:27:24;12.25;;;3.50;;
22549;SDS011;11441;57.164;-2.120;2023-05-19T06:29:51;11.95;;;3.08;;
22549;SDS011;11441;57.164;-2.120;2023-05-19T06:32:18;9.57;;;2.95;;
22549;SDS011;11441;57.164;-2.120;2023-05-19T06:35:06;8.25;;;3.10;;
22549;SDS011;11441;57.164;-2.120;2023-05-19T06:37:33;13.18;;;3.33;;
22549;SDS011;11441;57.164;-2.120;2023-05-19T06:40:01;13.95;;;3.40;;
22549;SDS011;11441;57.164;-2.120;2023-05-19T06:45:21;10.45;;;3.30;;
22549;SDS011;11441;57.164;-2.120;2023-05-19T06:47:50;12.07;;;3.30;;
22549;SDS011;11441;57.164;-2.120;2023-05-19T06:50:17;11.63;;;3.83;;
22549;SDS011;11441;57.164;-2.120;2023-05-19T06:55:33;13.48;;;3.55;;
22549;SDS011;11441;57.164;-2.120;2023-05-19T06:58:13;10.93;;;4.07;;
22549;SDS011;11441;57.164;-2.120;2023-05-19T07:00:41;9.63;;;3.25;;
22549;SDS011;11441;57.164;-2.120;2023-05-19T07:03:11;9.52;;;3.05;;
22549;SDS011;11441;57.164;-2.120;2023-05-19T07:05:38;12.60;;;2.85;;
22549;SDS011;11441;57.164;-2.120;2023-05-19T07:08:05;9.32;;;2.78;;
22549;SDS011;11441;57.164;-2.120;2023-05-19T07:10:34;11.20;;;3.70;;
22549;SDS011;11441;57.164;-2.120;2023-05-19T07:13:06;11.90;;;3.97;;
22549;SDS011;11441;57.164;-2.120;2023-05-19T07:15:34;10.27;;;3.33;;
22549;SDS011;11441;57.164;-2.120;2023-05-19T07:18:02;15.13;;;3.97;;
22549;SDS011;11441;57.164;-2.120;2023-05-19T07:20:29;15.32;;;3.78;;
22549;SDS011;11441;57.164;-2.120;2023-05-19T07:22:56;11.68;;;4.03;;
22549;SDS011;11441;57.164;-2.120;2023-05-19T07:25:23;16.17;;;4.10;;
22549;SDS011;11441;57.164;-2.120;2023-05-19T07:27:53;16.75;;;4.55;;
22549;SDS011;11441;57.164;-2.120;2023-05-19T07:30:19;19.40;;;4.30;;
22549;SDS011;11441;57.164;-2.120;2023-05-19T07:32:46;11.90;;;4.20;;
22549;SDS011;11441;57.164;-2.120;2023-05-19T07:35:14;12.55;;;3.63;;
22549;SDS011;11441;57.164;-2.120;2023-05-19T07:37:41;13.77;;;3.58;;
22549;SDS011;11441;57.164;-2.120;2023-05-19T07:40:08;10.00;;;3.92;;
22549;SDS011;11441;57.164;-2.120;2023-05-19T07:42:35;18.45;;;5.10;;
22549;SDS011;11441;57.164;-2.120;2023-05-19T07:45:02;15.85;;;4.90;;
22549;SDS011;11441;57.164;-2.120;2023-05-19T07:47:48;17.48;;;3.63;;
22549;SDS011;11441;57.164;-2.120;2023-05-19T07:50:15;17.60;;;4.13;;
22549;SDS011;11441;57.164;-2.120;2023-05-19T07:52:42;15.43;;;4.47;;
22549;SDS011;11441;57.164;-2.120;2023-05-19T07:55:09;8.80;;;3.40;;
22549;SDS011;11441;57.164;-2.120;2023-05-19T07:57:37;15.32;;;3.90;;
22549;SDS011;11441;57.164;-2.120;2023-05-19T08:00:04;18.85;;;4.93;;
22549;SDS011;11441;57.164;-2.120;2023-05-19T08:02:37;21.00;;;5.57;;
22549;SDS011;11441;57.164;-2.120;2023-05-19T08:05:04;18.60;;;4.05;;
22549;SDS011;11441;57.164;-2.120;2023-05-19T08:07:31;12.75;;;4.57;;
22549;SDS011;11441;57.164;-2.120;2023-05-19T08:09:58;15.50;;;3.70;;
22549;SDS011;11441;57.164;-2.120;2023-05-19T08:12:25;12.10;;;3.50;;
22549;SDS011;11441;57.164;-2.120;2023-05-19T08:14:52;13.10;;;4.03;;
22549;SDS011;11441;57.164;-2.120;2023-05-19T08:17:19;10.50;;;3.75;;
22549;SDS011;11441;57.164;-2.120;2023-05-19T08:19:45;10.45;;;3.75;;
22549;SDS011;11441;57.164;-2.120;2023-05-19T08:22:12;10.57;;;4.13;;
22549;SDS011;11441;57.164;-2.120;2023-05-19T08:24:39;16.27;;;4.57;;
22549;SDS011;11441;57.164;-2.120;2023-05-19T08:27:08;17.65;;;4.80;;
22549;SDS011;11441;57.164;-2.120;2023-05-19T08:29:35;16.88;;;4.30;;
22549;SDS011;11441;57.164;-2.120;2023-05-19T08:32:03;11.18;;;3.65;;
22549;SDS011;11441;57.164;-2.120;2023-05-19T08:34:30;11.75;;;3.70;;
22549;SDS011;11441;57.164;-2.120;2023-05-19T08:36:58;11.45;;;4.45;;
22549;SDS011;11441;57.164;-2.120;2023-05-19T08:39:25;13.93;;;4.43;;
22549;SDS011;11441;57.164;-2.120;2023-05-19T08:41:52;14.55;;;3.83;;
22549;SDS011;11441;57.164;-2.120;2023-05-19T08:44:20;13.27;;;4.40;;
22549;SDS011;11441;57.164;-2.120;2023-05-19T08:46:47;13.93;;;4.50;;
22549;SDS011;11441;57.164;-2.120;2023-05-19T08:49:15;13.73;;;4.20;;
22549;SDS011;11441;57.164;-2.120;2023-05-19T08:51:54;10.80;;;3.88;;
22549;SDS011;11441;57.164;-2.120;2023-05-19T08:54:29;12.15;;;3.78;;
22549;SDS011;11441;57.164;-2.120;2023-05-19T08:57:02;14.43;;;4.28;;
22549;SDS011;11441;57.164;-2.120;2023-05-19T08:59:31;12.75;;;3.65;;
22549;SDS011;11441;57.164;-2.120;2023-05-19T09:01:58;13.15;;;3.42;;
22549;SDS011;11441;57.164;-2.120;2023-05-19T09:04:25;11.85;;;3.90;;
22549;SDS011;11441;57.164;-2.120;2023-05-19T09:06:55;11.32;;;3.65;;
22549;SDS011;11441;57.164;-2.120;2023-05-19T09:09:24;12.82;;;4.10;;
22549;SDS011;11441;57.164;-2.120;2023-05-19T09:11:51;11.77;;;3.47;;
22549;SDS011;11441;57.164;-2.120;2023-05-19T09:14:18;10.85;;;3.47;;
22549;SDS011;11441;57.164;-2.120;2023-05-19T09:16:45;14.85;;;4.13;;
22549;SDS011;11441;57.164;-2.120;2023-05-19T09:19:16;9.38;;;3.42;;
22549;SDS011;11441;57.164;-2.120;2023-05-19T09:24:29;13.38;;;3.55;;
22549;SDS011;11441;57.164;-2.120;2023-05-19T09:26:56;13.70;;;4.32;;
22549;SDS011;11441;57.164;-2.120;2023-05-19T09:29:25;15.45;;;4.55;;
22549;SDS011;11441;57.164;-2.120;2023-05-19T09:31:55;10.27;;;3.47;;
22549;SDS011;11441;57.164;-2.120;2023-05-19T09:34:31;6.45;;;2.85;;
22549;SDS011;11441;57.164;-2.120;2023-05-19T09:36:58;11.77;;;3.78;;
22549;SDS011;11441;57.164;-2.120;2023-05-19T09:39:25;8.10;;;2.45;;
22549;SDS011;11441;57.164;-2.120;2023-05-19T09:41:54;9.15;;;2.53;;
22549;SDS011;11441;57.164;-2.120;2023-05-19T09:44:41;8.07;;;2.97;;
22549;SDS011;11441;57.164;-2.120;2023-05-19T09:47:09;8.27;;;2.65;;
22549;SDS011;11441;57.164;-2.120;2023-05-19T09:49:36;13.60;;;3.28;;
22549;SDS011;11441;57.164;-2.120;2023-05-19T09:52:13;10.07;;;3.15;;
22549;SDS011;11441;57.164;-2.120;2023-05-19T09:54:43;7.32;;;2.60;;
22549;SDS011;11441;57.164;-2.120;2023-05-19T09:57:10;12.57;;;3.67;;
22549;SDS011;11441;57.164;-2.120;2023-05-19T09:59:38;5.43;;;2.80;;
22549;SDS011;11441;57.164;-2.120;2023-05-19T10:02:06;8.60;;;3.50;;
22549;SDS011;11441;57.164;-2.120;2023-05-19T10:04:40;12.27;;;3.88;;
22549;SDS011;11441;57.164;-2.120;2023-05-19T10:07:08;9.85;;;3.28;;
22549;SDS011;11441;57.164;-2.120;2023-05-19T10:09:36;13.20;;;3.50;;
22549;SDS011;11441;57.164;-2.120;2023-05-19T10:12:04;8.40;;;2.78;;
22549;SDS011;11441;57.164;-2.120;2023-05-19T10:14:33;11.65;;;3.42;;
22549;SDS011;11441;57.164;-2.120;2023-05-19T10:17:04;15.00;;;4.10;;
22549;SDS011;11441;57.164;-2.120;2023-05-19T10:19:32;11.88;;;3.78;;
22549;SDS011;11441;57.164;-2.120;2023-05-19T10:22:01;8.20;;;3.35;;
22549;SDS011;11441;57.164;-2.120;2023-05-19T10:24:28;10.75;;;2.72;;
22549;SDS011;11441;57.164;-2.120;2023-05-19T10:27:06;16.52;;;4.60;;
22549;SDS011;11441;57.164;-2.120;2023-05-19T10:29:38;13.93;;;4.20;;
22549;SDS011;11441;57.164;-2.120;2023-05-19T10:32:15;8.23;;;3.38;;
22549;SDS011;11441;57.164;-2.120;2023-05-19T10:40:10;10.05;;;3.22;;
22549;SDS011;11441;57.164;-2.120;2023-05-19T10:45:46;13.77;;;4.15;;
22549;SDS011;11441;57.164;-2.120;2023-05-19T10:48:15;7.53;;;3.30;;
22549;SDS011;11441;57.164;-2.120;2023-05-19T10:50:43;8.48;;;2.83;;
22549;SDS011;11441;57.164;-2.120;2023-05-19T10:53:15;11.23;;;3.50;;
22549;SDS011;11441;57.164;-2.120;2023-05-19T10:55:52;9.32;;;3.38;;
22549;SDS011;11441;57.164;-2.120;2023-05-19T11:01:07;5.97;;;2.65;;
22549;SDS011;11441;57.164;-2.120;2023-05-19T11:03:45;10.60;;;4.03;;
22549;SDS011;11441;57.164;-2.120;2023-05-19T11:06:18;16.33;;;4.43;;
22549;SDS011;11441;57.164;-2.120;2023-05-19T11:08:59;11.95;;;3.95;;
22549;SDS011;11441;57.164;-2.120;2023-05-19T11:11:41;14.50;;;4.32;;
22549;SDS011;11441;57.164;-2.120;2023-05-19T11:14:11;12.40;;;4.00;;
22549;SDS011;11441;57.164;-2.120;2023-05-19T11:16:41;13.15;;;3.63;;
22549;SDS011;11441;57.164;-2.120;2023-05-19T11:19:15;12.88;;;3.75;;
22549;SDS011;11441;57.164;-2.120;2023-05-19T11:21:49;7.55;;;3.30;;
22549;SDS011;11441;57.164;-2.120;2023-05-19T11:24:33;7.78;;;3.70;;
22549;SDS011;11441;57.164;-2.120;2023-05-19T11:32:34;7.80;;;2.83;;
22549;SDS011;11441;57.164;-2.120;2023-05-19T11:35:05;8.70;;;2.65;;
22549;SDS011;11441;57.164;-2.120;2023-05-19T11:37:33;7.25;;;3.35;;
22549;SDS011;11441;57.164;-2.120;2023-05-19T11:40:01;13.70;;;3.92;;
22549;SDS011;11441;57.164;-2.120;2023-05-19T11:42:32;11.32;;;4.07;;
22549;SDS011;11441;57.164;-2.120;2023-05-19T11:45:00;8.15;;;2.90;;
22549;SDS011;11441;57.164;-2.120;2023-05-19T11:47:27;13.80;;;3.67;;
22549;SDS011;11441;57.164;-2.120;2023-05-19T11:50:12;13.82;;;3.60;;
22549;SDS011;11441;57.164;-2.120;2023-05-19T11:52:43;13.45;;;4.18;;
22549;SDS011;11441;57.164;-2.120;2023-05-19T11:55:14;14.35;;;4.20;;
22549;SDS011;11441;57.164;-2.120;2023-05-19T11:57:49;12.88;;;3.85;;
22549;SDS011;11441;57.164;-2.120;2023-05-19T12:00:33;10.27;;;2.97;;
22549;SDS011;11441;57.164;-2.120;2023-05-19T12:03:05;11.25;;;3.08;;
22549;SDS011;11441;57.164;-2.120;2023-05-19T12:05:35;13.15;;;3.08;;
22549;SDS011;11441;57.164;-2.120;2023-05-19T12:08:09;8.15;;;3.00;;
22549;SDS011;11441;57.164;-2.120;2023-05-19T12:10:37;9.25;;;3.67;;
22549;SDS011;11441;57.164;-2.120;2023-05-19T12:13:05;10.93;;;3.50;;
22549;SDS011;11441;57.164;-2.120;2023-05-19T12:15:36;7.57;;;2.53;;
22549;SDS011;11441;57.164;-2.120;2023-05-19T12:18:03;10.75;;;3.28;;
22549;SDS011;11441;57.164;-2.120;2023-05-19T12:20:30;11.68;;;3.95;;
22549;SDS011;11441;57.164;-2.120;2023-05-19T12:22:58;8.48;;;3.67;;
22549;SDS011;11441;57.164;-2.120;2023-05-19T12:28:12;7.25;;;2.55;;
22549;SDS011;11441;57.164;-2.120;2023-05-19T12:30:42;9.63;;;2.60;;
22549;SDS011;11441;57.164;-2.120;2023-05-19T12:33:14;9.43;;;3.55;;
22549;SDS011;11441;57.164;-2.120;2023-05-19T12:35:41;5.63;;;3.00;;
22549;SDS011;11441;57.164;-2.120;2023-05-19T12:38:08;8.55;;;3.38;;
22549;SDS011;11441;57.164;-2.120;2023-05-19T12:40:36;11.73;;;3.92;;
22549;SDS011;11441;57.164;-2.120;2023-05-19T12:43:07;14.68;;;4.95;;
22549;SDS011;11441;57.164;-2.120;2023-05-19T12:45:35;10.88;;;3.58;;
22549;SDS011;11441;57.164;-2.120;2023-05-19T12:48:03;8.93;;;3.13;;
22549;SDS011;11441;57.164;-2.120;2023-05-19T12:50:32;14.63;;;4.20;;
22549;SDS011;11441;57.164;-2.120;2023-05-19T12:53:00;8.57;;;3.25;;
22549;SDS011;11441;57.164;-2.120;2023-05-19T12:55:45;6.68;;;3.03;;
22549;SDS011;11441;57.164;-2.120;2023-05-19T12:58:14;14.98;;;3.13;;
22549;SDS011;11441;57.164;-2.120;2023-05-19T13:00:41;13.43;;;3.97;;
22549;SDS011;11441;57.164;-2.120;2023-05-19T13:05:57;11.80;;;3.55;;
22549;SDS011;11441;57.164;-2.120;2023-05-19T13:08:25;14.82;;;4.53;;
22549;SDS011;11441;57.164;-2.120;2023-05-19T13:10:53;10.02;;;3.67;;
22549;SDS011;11441;57.164;-2.120;2023-05-19T13:13:21;11.40;;;4.35;;
22549;SDS011;11441;57.164;-2.120;2023-05-19T13:15:48;9.32;;;4.20;;
22549;SDS011;11441;57.164;-2.120;2023-05-19T13:18:15;9.55;;;3.78;;
22549;SDS011;11441;57.164;-2.120;2023-05-19T13:20:43;9.70;;;4.28;;
22549;SDS011;11441;57.164;-2.120;2023-05-19T13:23:11;8.40;;;3.42;;
22549;SDS011;11441;57.164;-2.120;2023-05-19T13:25:39;10.48;;;3.28;;
22549;SDS011;11441;57.164;-2.120;2023-05-19T13:28:06;13.45;;;4.30;;
22549;SDS011;11441;57.164;-2.120;2023-05-19T13:30:34;11.00;;;3.60;;
22549;SDS011;11441;57.164;-2.120;2023-05-19T13:33:04;8.27;;;3.40;;
22549;SDS011;11441;57.164;-2.120;2023-05-19T13:35:31;9.02;;;3.65;;
22549;SDS011;11441;57.164;-2.120;2023-05-19T13:38:03;9.27;;;3.67;;
22549;SDS011;11441;57.164;-2.120;2023-05-19T13:40:32;12.75;;;4.53;;
22549;SDS011;11441;57.164;-2.120;2023-05-19T13:43:01;10.32;;;3.65;;
22549;SDS011;11441;57.164;-2.120;2023-05-19T13:45:28;13.15;;;3.78;;
22549;SDS011;11441;57.164;-2.120;2023-05-19T13:47:55;9.30;;;3.58;;
22549;SDS011;11441;57.164;-2.120;2023-05-19T13:50:22;9.00;;;3.35;;
22549;SDS011;11441;57.164;-2.120;2023-05-19T13:52:49;11.50;;;3.53;;
22549;SDS011;11441;57.164;-2.120;2023-05-19T13:55:16;11.35;;;3.22;;
22549;SDS011;11441;57.164;-2.120;2023-05-19T13:57:43;17.38;;;3.63;;
22549;SDS011;11441;57.164;-2.120;2023-05-19T14:00:10;12.25;;;3.72;;
22549;SDS011;11441;57.164;-2.120;2023-05-19T14:02:37;11.90;;;3.65;;
22549;SDS011;11441;57.164;-2.120;2023-05-19T14:05:05;11.85;;;3.92;;
22549;SDS011;11441;57.164;-2.120;2023-05-19T14:07:32;12.98;;;4.57;;
22549;SDS011;11441;57.164;-2.120;2023-05-19T14:10:01;14.45;;;3.92;;
22549;SDS011;11441;57.164;-2.120;2023-05-19T14:15:35;10.60;;;3.97;;
22549;SDS011;11441;57.164;-2.120;2023-05-19T14:18:03;14.50;;;3.70;;
22549;SDS011;11441;57.164;-2.120;2023-05-19T14:20:33;10.45;;;3.65;;
22549;SDS011;11441;57.164;-2.120;2023-05-19T14:23:00;7.90;;;3.03;;
22549;SDS011;11441;57.164;-2.120;2023-05-19T14:25:27;11.32;;;3.13;;
22549;SDS011;11441;57.164;-2.120;2023-05-19T14:27:54;10.27;;;3.78;;
22549;SDS011;11441;57.164;-2.120;2023-05-19T14:30:21;6.88;;;3.65;;
22549;SDS011;11441;57.164;-2.120;2023-05-19T14:32:48;12.95;;;3.65;;
22549;SDS011;11441;57.164;-2.120;2023-05-19T14:35:14;10.07;;;3.40;;
22549;SDS011;11441;57.164;-2.120;2023-05-19T14:37:41;12.52;;;3.63;;
22549;SDS011;11441;57.164;-2.120;2023-05-19T14:40:09;8.20;;;2.80;;
22549;SDS011;11441;57.164;-2.120;2023-05-19T14:42:36;9.63;;;3.22;;
22549;SDS011;11441;57.164;-2.120;2023-05-19T14:45:03;10.57;;;3.35;;
22549;SDS011;11441;57.164;-2.120;2023-05-19T14:50:16;18.80;;;7.10;;
22549;SDS011;11441;57.164;-2.120;2023-05-19T14:52:43;9.95;;;4.07;;
22549;SDS011;11441;57.164;-2.120;2023-05-19T14:55:10;12.48;;;3.63;;
22549;SDS011;11441;57.164;-2.120;2023-05-19T14:57:37;11.40;;;4.63;;
22549;SDS011;11441;57.164;-2.120;2023-05-19T15:00:04;11.82;;;4.25;;
22549;SDS011;11441;57.164;-2.120;2023-05-19T15:02:32;17.42;;;5.00;;
22549;SDS011;11441;57.164;-2.120;2023-05-19T15:04:59;13.77;;;4.45;;
22549;SDS011;11441;57.164;-2.120;2023-05-19T15:07:26;12.30;;;3.88;;
22549;SDS011;11441;57.164;-2.120;2023-05-19T15:09:53;12.38;;;3.15;;
22549;SDS011;11441;57.164;-2.120;2023-05-19T15:12:20;15.75;;;3.72;;
22549;SDS011;11441;57.164;-2.120;2023-05-19T15:14:47;9.27;;;3.13;;
22549;SDS011;11441;57.164;-2.120;2023-05-19T15:17:13;16.65;;;4.18;;
22549;SDS011;11441;57.164;-2.120;2023-05-19T15:19:41;12.18;;;3.78;;
22549;SDS011;11441;57.164;-2.120;2023-05-19T15:22:08;12.65;;;3.95;;
22549;SDS011;11441;57.164;-2.120;2023-05-19T15:24:35;16.98;;;3.55;;
22549;SDS011;11441;57.164;-2.120;2023-05-19T15:27:02;11.93;;;3.40;;
22549;SDS011;11441;57.164;-2.120;2023-05-19T15:29:29;13.23;;;4.05;;
22549;SDS011;11441;57.164;-2.120;2023-05-19T15:31:56;10.95;;;3.95;;
22549;SDS011;11441;57.164;-2.120;2023-05-19T15:34:23;12.38;;;3.90;;
22549;SDS011;11441;57.164;-2.120;2023-05-19T15:36:50;9.00;;;3.78;;
22549;SDS011;11441;57.164;-2.120;2023-05-19T15:39:17;10.80;;;3.78;;
22549;SDS011;11441;57.164;-2.120;2023-05-19T15:42:20;10.90;;;3.80;;
22549;SDS011;11441;57.164;-2.120;2023-05-19T15:44:47;13.07;;;3.28;;
22549;SDS011;11441;57.164;-2.120;2023-05-19T15:47:14;10.65;;;2.85;;